Fort Dauphin, Madagascar
Current Conditions -  °F | °C
As of 12:00 AM on Sunday 26 Oct 2014 (Local Time) from FMSD Reporting Station
Few Clouds Few Clouds  
Wind Chill: 70°   Ceiling: Unl
Heat Index: 70°   Visibility: 6mi
Dew Point: 66°   Wind: 0mph
Humidity: 88%   Direction: NA
Pressure: 29.94"   Gusts: NA
Location:  25.03°S, 46.99°E
Report Text: FMSD 252100Z 00000KT 9999 FEW033 21/19 Q1014
Loading
Personal Weather Stations






























Interactive Weather Map
Tropical Storm Tracking
New forecast layout! Learn more

10-Day Weather Forecast

Advertisements
Track Severe Weather on mobile